Time;durP1;ratioP1;P1;durP2;ratioP2;P2;SDS_P1;SDS_P2;PMS_P1;PMS_P2;Temp;Humidity;BMP_temperature;BMP_pressure;BME280_temperature;BME280_humidity;BME280_pressure;Samples;Min_cycle;Max_cycle;Signal;HPM_P1;HPM_P2
2023/01/14 00:01:11;;;;;;;4.35;4.13;;;2.60;99.90;;;;;;5050941;28;20221;-77
2023/01/14 00:03:38;;;;;;;4.35;4.05;;;2.60;99.90;;;;;;5050983;28;20202;-74
2023/01/14 00:06:06;;;;;;;4.18;3.88;;;2.60;99.90;;;;;;5048679;28;20222;-73
2023/01/14 00:08:34;;;;;;;4.22;3.92;;;2.60;99.90;;;;;;5053386;28;20242;-74
2023/01/14 00:11:04;;;;;;;3.88;3.67;;;2.60;99.90;;;;;;5054192;28;20718;-75
2023/01/14 00:13:34;;;;;;;3.88;3.65;;;2.60;99.90;;;;;;5052678;28;20209;-76
2023/01/14 00:16:02;;;;;;;4.35;4.05;;;2.60;99.90;;;;;;5051738;28;20316;-76
2023/01/14 00:18:30;;;;;;;3.92;3.70;;;2.70;99.90;;;;;;5056637;28;20194;-74
2023/01/14 00:21:02;;;;;;;3.88;3.58;;;2.70;99.90;;;;;;5055393;28;20226;-79
2023/01/14 00:23:31;;;;;;;4.10;3.80;;;2.70;99.90;;;;;;5056750;28;20228;-80
2023/01/14 00:26:05;;;;;;;3.78;3.50;;;2.70;99.90;;;;;;5059276;28;20280;-78
2023/01/14 00:28:32;;;;;;;3.95;3.65;;;2.70;99.90;;;;;;5059226;28;20193;-77
2023/01/14 00:31:07;;;;;;;4.18;3.88;;;2.70;99.90;;;;;;5059820;28;20229;-76
2023/01/14 00:33:35;;;;;;;3.83;3.58;;;2.70;99.90;;;;;;5056079;28;20225;-75
2023/01/14 00:36:02;;;;;;;4.15;3.85;;;2.60;99.90;;;;;;5057165;28;20603;-79
2023/01/14 00:38:29;;;;;;;4.20;4.00;;;2.60;99.90;;;;;;5057210;28;20202;-75
2023/01/14 00:41:12;;;;;;;4.55;4.25;;;2.60;99.90;;;;;;5062717;28;20218;-76
2023/01/14 00:43:41;;;;;;;3.88;3.65;;;2.70;99.90;;;;;;5060995;28;20289;-75
2023/01/14 00:46:11;;;;;;;4.38;4.07;;;2.80;99.90;;;;;;5063052;28;20229;-76
2023/01/14 00:48:39;;;;;;;4.07;3.78;;;2.70;99.90;;;;;;5060088;28;20190;-77
2023/01/14 00:51:07;;;;;;;4.63;4.30;;;2.80;99.90;;;;;;5064331;28;20225;-78
2023/01/14 00:53:34;;;;;;;4.53;4.13;;;2.90;99.90;;;;;;5070346;28;20186;-75
2023/01/14 00:56:01;;;;;;;4.40;4.10;;;3.00;99.90;;;;;;5067313;28;20214;-76
2023/01/14 00:58:30;;;;;;;4.25;3.95;;;3.00;99.90;;;;;;5067464;28;20216;-76
2023/01/14 01:00:57;;;;;;;4.40;4.00;;;3.00;99.90;;;;;;5064824;28;20635;-82
2023/01/14 01:03:24;;;;;;;4.57;4.20;;;3.00;99.90;;;;;;5068990;28;20643;-77
2023/01/14 01:05:52;;;;;;;4.18;3.88;;;3.00;99.90;;;;;;5062505;28;20268;-74
2023/01/14 01:08:20;;;;;;;4.90;4.50;;;3.00;99.90;;;;;;5068945;28;20198;-75
2023/01/14 01:10:50;;;;;;;4.20;3.90;;;3.00;99.90;;;;;;5065739;28;20214;-75
2023/01/14 01:13:18;;;;;;;4.50;4.20;;;2.90;99.90;;;;;;5066204;28;20277;-77
2023/01/14 01:15:46;;;;;;;4.45;4.15;;;2.80;99.90;;;;;;5064405;28;20225;-80
2023/01/14 01:18:14;;;;;;;4.03;3.72;;;2.80;99.90;;;;;;5067669;28;20243;-77
2023/01/14 01:20:42;;;;;;;4.55;4.25;;;2.70;99.90;;;;;;5070268;28;20226;-78
2023/01/14 01:23:11;;;;;;;4.38;4.07;;;2.60;99.90;;;;;;5066058;28;20945;-76
2023/01/14 01:25:38;;;;;;;3.78;3.40;;;2.60;99.90;;;;;;5064408;28;20745;-76
2023/01/14 01:28:06;;;;;;;3.75;3.55;;;2.60;99.90;;;;;;5067407;28;20195;-76
2023/01/14 01:30:33;;;;;;;3.75;3.55;;;2.60;99.90;;;;;;5067100;28;20282;-77
2023/01/14 01:33:02;;;;;;;3.80;3.60;;;2.60;99.90;;;;;;5067502;28;20867;-75
2023/01/14 01:35:29;;;;;;;3.33;3.13;;;2.70;99.90;;;;;;5062924;28;20222;-81
2023/01/14 01:37:56;;;;;;;3.47;3.28;;;2.70;99.90;;;;;;5062750;28;20197;-76
2023/01/14 01:40:23;;;;;;;3.80;3.50;;;2.80;99.90;;;;;;5061194;28;20675;-78
2023/01/14 01:43:00;;;;;;;3.50;3.30;;;2.80;99.90;;;;;;5062742;28;20305;-79
2023/01/14 01:45:32;;;;;;;3.35;3.15;;;2.90;99.90;;;;;;5061275;28;20308;-78
2023/01/14 01:48:05;;;;;;;3.83;3.60;;;2.90;99.90;;;;;;5061263;28;20293;-78
2023/01/14 01:50:33;;;;;;;3.22;3.03;;;2.90;99.90;;;;;;5061402;28;20231;-77
2023/01/14 01:53:01;;;;;;;4.25;3.95;;;3.00;99.90;;;;;;5061675;28;20209;-77
2023/01/14 01:55:29;;;;;;;4.07;3.78;;;2.90;99.90;;;;;;5060965;28;20230;-81
2023/01/14 01:57:57;;;;;;;4.05;3.75;;;2.80;99.90;;;;;;5062438;28;20198;-76
2023/01/14 02:00:25;;;;;;;3.70;3.50;;;2.70;99.90;;;;;;5059812;28;20222;-75
2023/01/14 02:02:57;;;;;;;3.65;3.35;;;2.60;99.90;;;;;;5064308;28;20206;-78
2023/01/14 02:05:26;;;;;;;3.92;3.63;;;2.60;99.90;;;;;;5060649;28;20696;-78
2023/01/14 02:07:53;;;;;;;4.13;3.60;;;2.70;99.90;;;;;;5057797;28;20260;-74
2023/01/14 02:10:22;;;;;;;3.92;3.63;;;2.70;99.90;;;;;;5062468;28;20225;-74
2023/01/14 02:13:06;;;;;;;4.40;4.00;;;2.70;99.90;;;;;;5064269;28;20214;-76
2023/01/14 02:15:46;;;;;;;3.83;3.53;;;2.70;99.90;;;;;;5056191;28;20223;-78
2023/01/14 02:18:27;;;;;;;4.22;3.90;;;2.70;99.90;;;;;;5061745;28;20198;-76
2023/01/14 02:21:04;;;;;;;3.70;3.40;;;2.80;99.90;;;;;;5061548;28;20715;-80
2023/01/14 02:24:14;;;;;;;3.75;3.50;;;2.80;99.90;;;;;;5057351;28;20217;-78
2023/01/14 02:27:24;;;;;;;3.67;3.47;;;2.80;99.90;;;;;;5064133;28;20300;-77
2023/01/14 02:30:06;;;;;;;3.67;3.47;;;2.80;99.90;;;;;;5019730;28;20222;-75
2023/01/14 02:32:39;;;;;;;3.55;3.35;;;2.80;99.90;;;;;;5062791;28;20688;-77
2023/01/14 02:35:19;;;;;;;3.38;3.17;;;2.80;99.90;;;;;;5060259;28;20313;-77
2023/01/14 02:37:53;;;;;;;3.47;3.28;;;2.80;99.90;;;;;;5061788;28;20206;-79
2023/01/14 02:40:27;;;;;;;3.65;3.45;;;2.80;99.90;;;;;;5055435;28;20218;-77
2023/01/14 02:45:56;;;;;;;3.60;3.40;;;2.80;99.90;;;;;;5062590;28;20233;-76
2023/01/14 02:48:25;;;;;;;3.42;3.22;;;2.80;99.90;;;;;;5066143;28;20691;-78
2023/01/14 02:50:52;;;;;;;3.55;3.35;;;2.80;99.90;;;;;;5062262;28;20222;-76
2023/01/14 02:53:21;;;;;;;3.17;2.97;;;2.80;99.90;;;;;;5064758;28;20194;-76
2023/01/14 02:55:50;;;;;;;3.78;3.15;;;2.70;99.90;;;;;;5059445;28;20225;-79
2023/01/14 02:58:45;;;;;;;4.05;3.83;;;2.70;99.90;;;;;;5061230;28;20609;-75
2023/01/14 03:01:32;;;;;;;3.80;3.60;;;2.70;99.90;;;;;;5016937;28;20218;-74
2023/01/14 03:04:11;;;;;;;3.72;3.53;;;2.70;99.90;;;;;;5059181;28;20305;-74
2023/01/14 03:06:47;;;;;;;2.90;2.70;;;2.70;99.90;;;;;;5060707;28;20224;-75
2023/01/14 03:09:20;;;;;;;3.30;3.10;;;2.70;99.90;;;;;;5058767;28;20202;-75
2023/01/14 03:11:55;;;;;;;3.47;3.28;;;2.60;99.90;;;;;;5061827;28;20247;-74
2023/01/14 03:14:28;;;;;;;3.40;3.20;;;2.60;99.90;;;;;;5059324;28;20221;-74
2023/01/14 03:17:01;;;;;;;3.40;3.20;;;2.60;99.90;;;;;;5062062;28;20272;-76
2023/01/14 03:19:33;;;;;;;3.20;3.00;;;2.60;99.90;;;;;;5059601;28;20225;-74
2023/01/14 03:22:02;;;;;;;3.30;3.10;;;2.60;99.90;;;;;;5059242;28;20222;-74
2023/01/14 03:24:33;;;;;;;3.35;3.15;;;2.60;99.90;;;;;;5060449;28;20222;-73
2023/01/14 03:27:06;;;;;;;3.60;3.40;;;2.60;99.90;;;;;;5060395;28;20668;-77
2023/01/14 03:29:41;;;;;;;3.45;3.25;;;2.70;99.90;;;;;;5058137;28;20327;-74
2023/01/14 03:32:19;;;;;;;3.20;3.00;;;2.60;99.90;;;;;;5056205;28;20206;-74
2023/01/14 03:34:52;;;;;;;4.20;3.80;;;2.60;99.90;;;;;;5056672;28;20225;-76
2023/01/14 03:37:22;;;;;;;3.95;3.67;;;2.50;99.90;;;;;;5065690;28;20307;-75
2023/01/14 03:39:50;;;;;;;3.72;3.50;;;2.30;99.90;;;;;;5062916;28;20232;-76
2023/01/14 03:42:21;;;;;;;3.92;3.63;;;2.30;99.90;;;;;;5058919;28;20202;-73
2023/01/14 03:44:58;;;;;;;3.70;3.35;;;2.30;99.90;;;;;;5062261;28;20305;-73
2023/01/14 03:47:29;;;;;;;3.80;3.60;;;2.30;99.90;;;;;;5065013;28;20198;-74
2023/01/14 03:49:58;;;;;;;3.70;3.45;;;2.40;99.90;;;;;;5065764;28;20217;-75
2023/01/14 03:52:41;;;;;;;3.65;3.45;;;2.40;99.90;;;;;;5060159;28;20661;-73
2023/01/14 03:55:16;;;;;;;3.97;3.78;;;2.40;99.90;;;;;;5063968;28;20226;-74
2023/01/14 03:57:51;;;;;;;3.50;3.20;;;2.50;99.90;;;;;;5061322;28;20569;-76
2023/01/14 04:00:23;;;;;;;3.60;3.40;;;2.50;99.90;;;;;;5063671;28;20592;-77
2023/01/14 04:02:54;;;;;;;3.33;3.13;;;2.60;99.90;;;;;;5053949;28;20229;-74
2023/01/14 04:05:21;;;;;;;3.38;3.17;;;2.60;99.90;;;;;;5055951;28;20581;-73
2023/01/14 04:07:50;;;;;;;3.35;3.17;;;2.60;99.90;;;;;;5063950;28;20210;-75
2023/01/14 04:10:17;;;;;;;3.47;3.28;;;2.60;99.90;;;;;;5061506;28;20222;-79
2023/01/14 04:15:25;;;;;;;3.40;3.20;;;2.60;99.90;;;;;;5063168;28;20221;-79
2023/01/14 04:17:54;;;;;;;3.70;3.45;;;2.60;99.90;;;;;;5062117;28;20198;-74
2023/01/14 04:20:21;;;;;;;3.42;3.22;;;2.60;99.90;;;;;;5063616;28;20258;-76
2023/01/14 04:22:48;;;;;;;3.17;2.97;;;2.50;99.90;;;;;;5063132;28;20312;-77
2023/01/14 04:25:15;;;;;;;3.45;3.25;;;2.40;99.90;;;;;;5061404;28;20704;-79
2023/01/14 04:27:42;;;;;;;3.85;3.55;;;2.40;99.90;;;;;;5061848;28;20190;-77
2023/01/14 04:30:11;;;;;;;3.63;3.42;;;2.40;99.90;;;;;;5063246;28;20218;-74
2023/01/14 04:32:38;;;;;;;3.60;3.40;;;2.40;99.90;;;;;;5058595;28;20202;-77
2023/01/14 04:35:07;;;;;;;3.78;3.58;;;2.40;99.90;;;;;;5061898;28;20723;-74
2023/01/14 04:37:35;;;;;;;3.55;3.35;;;2.40;99.90;;;;;;5061365;28;20225;-78
2023/01/14 04:40:02;;;;;;;3.45;3.25;;;2.40;99.90;;;;;;5063370;28;20591;-78
2023/01/14 04:42:30;;;;;;;3.55;3.35;;;2.40;99.90;;;;;;5060316;28;20699;-74
2023/01/14 04:44:59;;;;;;;3.47;3.28;;;2.40;99.90;;;;;;5062560;28;20230;-75
2023/01/14 04:47:26;;;;;;;3.80;3.60;;;2.30;99.90;;;;;;5060921;28;20194;-74
2023/01/14 04:49:53;;;;;;;3.60;3.40;;;2.30;99.90;;;;;;5058251;28;21870;-76
2023/01/14 04:52:23;;;;;;;3.60;3.30;;;2.20;99.90;;;;;;5058978;28;20661;-74
2023/01/14 04:54:50;;;;;;;3.70;3.50;;;2.20;99.90;;;;;;5062310;28;20222;-74
2023/01/14 04:57:17;;;;;;;3.85;3.55;;;2.10;99.90;;;;;;5063222;28;22078;-77
2023/01/14 04:59:44;;;;;;;3.65;3.45;;;2.10;99.90;;;;;;5061553;28;20222;-79
2023/01/14 05:02:11;;;;;;;3.78;3.55;;;2.00;99.90;;;;;;5061847;28;20194;-78
2023/01/14 05:04:38;;;;;;;4.20;3.90;;;1.90;99.90;;;;;;5067050;28;20599;-75
2023/01/14 05:07:06;;;;;;;4.20;3.90;;;1.90;99.90;;;;;;5064753;28;20198;-74
2023/01/14 05:09:34;;;;;;;4.57;4.18;;;1.80;99.90;;;;;;5067874;28;20704;-76
2023/01/14 05:12:01;;;;;;;4.30;4.00;;;1.80;99.90;;;;;;5067954;28;20282;-77
2023/01/14 05:14:28;;;;;;;4.32;3.92;;;1.80;99.90;;;;;;5061492;28;20254;-74
2023/01/14 05:16:55;;;;;;;3.70;3.50;;;1.70;99.90;;;;;;5068431;28;20190;-73
2023/01/14 05:19:23;;;;;;;4.43;4.13;;;1.70;99.90;;;;;;5065773;28;20647;-75
2023/01/14 05:21:50;;;;;;;4.53;4.18;;;1.70;99.90;;;;;;5064606;28;20218;-73
2023/01/14 05:24:17;;;;;;;4.78;4.47;;;1.70;99.90;;;;;;5067096;28;20222;-75
2023/01/14 05:26:45;;;;;;;4.70;4.35;;;1.60;99.90;;;;;;5070142;28;20722;-74
2023/01/14 05:29:12;;;;;;;4.10;3.80;;;1.60;99.90;;;;;;5068602;28;20202;-74
2023/01/14 05:31:39;;;;;;;4.13;3.90;;;1.50;99.90;;;;;;5067773;28;20210;-73
2023/01/14 05:34:06;;;;;;;4.10;3.80;;;1.60;99.90;;;;;;5066834;28;20210;-74
2023/01/14 05:36:33;;;;;;;4.18;3.88;;;1.60;99.90;;;;;;5064494;28;20663;-73
2023/01/14 05:39:00;;;;;;;4.10;3.85;;;1.60;99.90;;;;;;5070033;28;20194;-73
2023/01/14 05:41:27;;;;;;;4.00;3.75;;;1.60;99.90;;;;;;5066978;28;20276;-75
2023/01/14 05:46:40;;;;;;;4.30;4.00;;;1.60;99.90;;;;;;5065527;28;20229;-76
2023/01/14 05:49:07;;;;;;;3.75;3.55;;;1.70;99.90;;;;;;5063645;28;20259;-75
2023/01/14 05:51:34;;;;;;;4.00;3.80;;;1.70;99.90;;;;;;5064129;28;20295;-75
2023/01/14 05:54:01;;;;;;;3.80;3.60;;;1.70;99.90;;;;;;5065464;28;20214;-73
2023/01/14 05:56:28;;;;;;;3.80;3.60;;;1.80;99.90;;;;;;5068625;28;20217;-73
2023/01/14 05:58:57;;;;;;;3.72;3.53;;;1.80;99.90;;;;;;5060529;28;20205;-76
2023/01/14 06:07:04;;;;;;;4.05;3.75;;;1.90;99.90;;;;;;5062168;28;20193;-74
2023/01/14 06:09:33;;;;;;;3.72;3.53;;;1.90;99.90;;;;;;5064724;28;20218;-75
2023/01/14 06:12:02;;;;;;;3.72;3.53;;;1.90;99.90;;;;;;5063964;28;20207;-73
2023/01/14 06:14:32;;;;;;;4.05;3.83;;;1.90;99.90;;;;;;5067566;28;20322;-77
2023/01/14 06:17:02;;;;;;;4.82;4.53;;;1.80;99.90;;;;;;5064576;28;20194;-77
2023/01/14 06:19:29;;;;;;;4.22;3.92;;;1.80;99.90;;;;;;5067033;28;20789;-75
2023/01/14 06:21:56;;;;;;;4.68;4.38;;;1.80;99.90;;;;;;5060487;28;20194;-74
2023/01/14 06:24:23;;;;;;;3.83;3.63;;;1.80;99.90;;;;;;5060194;28;20229;-76
2023/01/14 06:26:50;;;;;;;4.20;3.92;;;1.80;99.90;;;;;;5065293;28;20206;-77
2023/01/14 06:29:17;;;;;;;4.18;3.90;;;1.80;99.90;;;;;;5061341;28;20213;-75
2023/01/14 06:31:45;;;;;;;6.57;5.93;;;1.80;99.90;;;;;;5063389;28;20206;-76
2023/01/14 06:34:12;;;;;;;6.75;6.10;;;1.90;99.90;;;;;;5061690;28;20264;-73
2023/01/14 06:36:40;;;;;;;8.30;7.50;;;1.90;99.90;;;;;;5068711;28;20209;-75
2023/01/14 06:39:07;;;;;;;9.07;8.18;;;1.90;99.90;;;;;;5059352;28;20677;-74
2023/01/14 06:41:34;;;;;;;10.82;8.80;;;1.90;99.90;;;;;;5065682;28;20629;-78
2023/01/14 06:44:01;;;;;;;11.10;9.23;;;1.90;99.90;;;;;;5066474;28;20696;-73
2023/01/14 06:46:29;;;;;;;9.77;8.73;;;1.90;99.90;;;;;;5063421;28;20221;-74
2023/01/14 06:48:58;;;;;;;10.25;8.15;;;2.00;99.90;;;;;;5061258;28;20632;-75
2023/01/14 06:51:25;;;;;;;8.45;7.38;;;2.00;99.90;;;;;;5061347;28;22654;-75
2023/01/14 06:53:52;;;;;;;8.90;7.18;;;2.00;99.90;;;;;;5062674;28;20613;-76
2023/01/14 06:56:19;;;;;;;7.40;6.80;;;2.00;99.90;;;;;;5063358;28;20264;-71
2023/01/14 06:58:48;;;;;;;6.53;5.88;;;2.10;99.90;;;;;;5064635;28;20255;-73
2023/01/14 07:01:15;;;;;;;5.65;5.15;;;2.10;99.90;;;;;;5064466;28;20222;-72
2023/01/14 07:03:42;;;;;;;5.70;5.20;;;2.10;99.90;;;;;;5066293;28;20291;-74
2023/01/14 07:06:11;;;;;;;5.15;4.85;;;2.10;99.90;;;;;;5065093;28;20218;-74
2023/01/14 07:08:38;;;;;;;5.00;4.60;;;2.10;99.90;;;;;;5060388;28;20233;-74
2023/01/14 07:11:05;;;;;;;5.35;4.95;;;2.10;99.90;;;;;;5067390;28;20218;-71
2023/01/14 07:13:33;;;;;;;5.20;4.80;;;2.10;99.90;;;;;;5060366;28;20291;-74
2023/01/14 07:16:00;;;;;;;4.80;4.40;;;2.00;99.90;;;;;;5059151;28;20229;-73
2023/01/14 07:18:27;;;;;;;4.95;4.65;;;1.90;99.90;;;;;;5064130;28;20199;-74
2023/01/14 07:20:57;;;;;;;5.22;4.38;;;1.90;99.90;;;;;;5064383;28;20210;-72
2023/01/14 07:23:26;;;;;;;4.72;4.43;;;1.90;99.90;;;;;;5066661;28;20221;-72
2023/01/14 07:25:55;;;;;;;5.57;5.18;;;1.80;99.90;;;;;;5040192;28;20872;-73
2023/01/14 07:28:23;;;;;;;5.60;5.10;;;1.90;99.90;;;;;;5062124;28;20260;-73
2023/01/14 07:30:51;;;;;;;5.18;4.88;;;1.80;99.90;;;;;;5062085;28;20769;-72
2023/01/14 07:33:18;;;;;;;5.05;4.65;;;1.90;99.90;;;;;;5071241;28;20190;-75
2023/01/14 07:35:47;;;;;;;5.00;4.60;;;1.90;99.90;;;;;;5059475;28;20223;-73
2023/01/14 07:38:14;;;;;;;5.18;4.78;;;1.90;99.90;;;;;;5065265;28;20216;-72
2023/01/14 07:40:42;;;;;;;4.13;3.83;;;1.90;99.90;;;;;;5064804;28;20230;-73
2023/01/14 07:43:10;;;;;;;4.65;4.35;;;1.90;99.90;;;;;;5063587;28;20244;-72
2023/01/14 07:45:37;;;;;;;4.90;4.60;;;2.00;99.90;;;;;;5046434;28;20235;-73
2023/01/14 07:48:04;;;;;;;4.50;4.05;;;2.00;99.90;;;;;;5052365;28;20195;-77
2023/01/14 07:50:31;;;;;;;5.18;4.63;;;2.00;99.90;;;;;;5051564;28;20804;-74
2023/01/14 07:52:59;;;;;;;4.30;4.00;;;1.90;99.90;;;;;;5054970;28;20194;-75
2023/01/14 07:55:27;;;;;;;4.32;4.00;;;1.90;99.90;;;;;;5062670;28;20282;-73
2023/01/14 07:57:56;;;;;;;4.65;4.35;;;2.00;99.90;;;;;;5046533;28;20210;-73
2023/01/14 08:00:23;;;;;;;4.20;4.00;;;2.00;99.90;;;;;;5051037;28;20229;-75
2023/01/14 08:02:50;;;;;;;4.40;4.10;;;2.00;99.90;;;;;;5060036;28;20194;-75
2023/01/14 08:05:17;;;;;;;4.25;3.95;;;2.10;99.90;;;;;;5058173;28;20225;-74
2023/01/14 08:07:44;;;;;;;3.80;3.58;;;2.20;99.90;;;;;;5046321;28;20627;-75
2023/01/14 08:10:12;;;;;;;4.32;4.03;;;2.20;99.90;;;;;;5053244;28;20283;-73
2023/01/14 08:12:42;;;;;;;4.15;3.85;;;2.30;99.90;;;;;;5054920;28;20613;-74
2023/01/14 08:15:12;;;;;;;4.13;3.83;;;2.30;99.90;;;;;;5063740;28;20229;-78
2023/01/14 08:17:40;;;;;;;4.97;4.47;;;2.30;99.90;;;;;;5058728;28;20739;-73
2023/01/14 08:20:08;;;;;;;5.55;5.05;;;2.10;99.90;;;;;;5063020;28;20225;-73
2023/01/14 08:22:35;;;;;;;4.95;4.40;;;2.10;99.90;;;;;;5062023;28;20198;-76
2023/01/14 08:25:02;;;;;;;4.90;4.50;;;2.30;99.90;;;;;;5058037;28;20226;-74
2023/01/14 08:27:29;;;;;;;5.53;5.00;;;3.20;99.90;;;;;;5058750;28;20268;-77
2023/01/14 08:29:56;;;;;;;5.20;4.80;;;4.30;99.90;;;;;;5064124;28;20218;-77
2023/01/14 08:32:25;;;;;;;5.55;5.15;;;5.50;99.90;;;;;;5059473;28;20198;-77
2023/01/14 08:34:52;;;;;;;4.72;4.32;;;6.70;99.90;;;;;;5057403;28;20231;-79
2023/01/14 08:37:20;;;;;;;4.53;4.22;;;7.70;99.90;;;;;;5065900;28;20190;-76
2023/01/14 08:39:47;;;;;;;4.88;4.57;;;8.60;99.90;;;;;;5077395;28;20218;-73
2023/01/14 08:42:14;;;;;;;5.07;4.68;;;9.20;99.90;;;;;;5069776;28;20198;-73
2023/01/14 08:44:41;;;;;;;5.88;5.30;;;9.80;99.90;;;;;;5064873;28;20594;-73
2023/01/14 08:47:08;;;;;;;8.20;7.45;;;10.00;99.90;;;;;;5068875;28;20190;-74
2023/01/14 08:49:37;;;;;;;8.07;7.30;;;10.00;99.90;;;;;;5062964;28;20341;-73
2023/01/14 08:52:04;;;;;;;9.57;7.60;;;10.10;99.90;;;;;;5065792;28;20229;-74
2023/01/14 08:54:31;;;;;;;7.60;6.80;;;10.20;99.90;;;;;;5066004;28;20594;-73
2023/01/14 08:56:58;;;;;;;9.43;7.97;;;10.50;99.90;;;;;;5064824;28;20191;-75
2023/01/14 08:59:26;;;;;;;8.60;7.80;;;10.50;99.90;;;;;;5065667;28;20280;-74
2023/01/14 09:01:53;;;;;;;8.32;7.63;;;10.40;99.90;;;;;;5066018;28;20203;-74
2023/01/14 09:04:20;;;;;;;8.77;7.55;;;10.50;99.90;;;;;;5063212;28;20322;-75
2023/01/14 09:17:56;;;;;;;7.97;7.20;;;10.80;99.90;;;;;;5057955;28;20224;-73
2023/01/14 09:20:26;;;;;;;7.80;7.10;;;10.60;99.90;;;;;;5052089;28;20214;-74
2023/01/14 09:22:55;;;;;;;8.13;7.35;;;10.60;99.90;;;;;;5060669;28;20217;-76
2023/01/14 09:25:22;;;;;;;7.18;6.57;;;11.50;99.90;;;;;;5064617;28;20237;-75
2023/01/14 09:27:49;;;;;;;7.45;6.75;;;13.00;99.90;;;;;;5066264;28;20214;-75
2023/01/14 09:30:16;;;;;;;6.72;6.05;;;14.50;99.90;;;;;;5063931;28;20230;-77
2023/01/14 09:32:44;;;;;;;6.80;6.10;;;16.10;99.90;;;;;;5062458;28;20207;-83
2023/01/14 09:35:12;;;;;;;6.60;5.75;;;17.30;99.90;;;;;;5064601;28;20230;-74
2023/01/14 09:37:39;;;;;;;7.43;5.60;;;18.60;99.90;;;;;;5068881;28;20205;-76
2023/01/14 09:40:10;;;;;;;6.03;5.05;;;19.60;99.90;;;;;;5059230;28;20214;-78
2023/01/14 09:42:41;;;;;;;5.30;4.80;;;20.80;99.90;;;;;;5065040;28;20202;-77
2023/01/14 09:45:14;;;;;;;4.93;4.40;;;21.60;95.30;;;;;;5060323;28;20233;-74
2023/01/14 09:47:42;;;;;;;6.28;4.88;;;22.00;94.20;;;;;;5069075;28;20934;-74
2023/01/14 09:50:15;;;;;;;5.10;4.60;;;23.00;93.00;;;;;;5066331;28;20222;-75
2023/01/14 09:52:56;;;;;;;5.43;4.72;;;23.20;90.50;;;;;;5064260;28;20655;-75
2023/01/14 09:55:31;;;;;;;5.93;5.35;;;23.40;86.10;;;;;;5056733;28;20779;-78
2023/01/14 09:58:04;;;;;;;6.97;6.10;;;22.60;80.00;;;;;;5063786;28;20190;-78
2023/01/14 10:00:38;;;;;;;6.72;6.13;;;21.60;85.50;;;;;;5054934;28;20226;-76
2023/01/14 10:03:34;;;;;;;8.48;6.25;;;20.80;89.30;;;;;;5060552;28;20189;-77
2023/01/14 10:06:04;;;;;;;6.93;6.30;;;19.30;90.10;;;;;;5040815;28;20221;-78
2023/01/14 10:08:37;;;;;;;6.78;6.18;;;18.00;93.90;;;;;;5062174;28;20199;-77
2023/01/14 10:11:07;;;;;;;7.15;6.45;;;17.20;95.80;;;;;;5058460;28;21410;-80
2023/01/14 10:13:40;;;;;;;6.88;6.20;;;16.60;96.90;;;;;;5059735;28;20205;-83
2023/01/14 10:16:13;;;;;;;6.90;6.10;;;16.20;98.20;;;;;;5059627;28;20214;-79
2023/01/14 10:18:47;;;;;;;5.82;5.32;;;15.80;99.90;;;;;;5057866;28;20212;-79
2023/01/14 10:21:20;;;;;;;5.68;5.18;;;15.20;99.90;;;;;;5059504;28;20218;-78
2023/01/14 10:23:47;;;;;;;6.20;5.60;;;14.50;99.90;;;;;;5057331;28;20207;-80
2023/01/14 10:26:19;;;;;;;6.85;5.85;;;14.20;99.90;;;;;;5061301;28;20246;-81
2023/01/14 10:28:49;;;;;;;6.15;5.55;;;13.80;99.90;;;;;;5063473;28;20293;-81
2023/01/14 10:31:20;;;;;;;6.32;5.68;;;13.80;99.90;;;;;;5065403;28;20224;-78
2023/01/14 10:33:47;;;;;;;6.15;5.55;;;13.70;99.90;;;;;;5063163;28;20190;-76
2023/01/14 10:36:19;;;;;;;5.75;5.25;;;13.80;99.90;;;;;;5067364;28;20222;-79
2023/01/14 10:38:46;;;;;;;6.18;5.30;;;13.80;99.90;;;;;;5068728;28;20194;-75
2023/01/14 10:41:14;;;;;;;5.82;4.88;;;13.90;99.90;;;;;;5057448;28;20218;-77
2023/01/14 10:43:45;;;;;;;6.10;5.60;;;13.90;99.90;;;;;;5066505;28;20230;-79
2023/01/14 10:46:17;;;;;;;5.57;4.88;;;14.00;99.90;;;;;;5065521;28;20245;-81
2023/01/14 10:48:50;;;;;;;9.68;6.72;;;13.70;99.90;;;;;;5060951;28;20289;-79
2023/01/14 10:51:47;;;;;;;8.27;6.97;;;13.60;99.90;;;;;;5063664;28;20302;-80
2023/01/14 10:54:16;;;;;;;18.90;9.38;;;13.50;99.90;;;;;;5060559;28;20221;-77
2023/01/14 10:56:48;;;;;;;16.60;11.90;;;13.50;99.90;;;;;;5061613;28;20199;-78
2023/01/14 10:59:33;;;;;;;11.50;8.80;;;13.80;99.90;;;;;;5059766;28;20199;-77
2023/01/14 11:02:00;;;;;;;10.65;7.15;;;13.70;99.90;;;;;;5066155;28;20202;-78
2023/01/14 11:04:30;;;;;;;10.90;6.70;;;13.50;99.90;;;;;;5056217;28;20410;-77
2023/01/14 11:06:57;;;;;;;6.18;5.28;;;13.10;99.90;;;;;;5063366;28;20190;-74
2023/01/14 11:09:29;;;;;;;6.45;4.50;;;12.50;99.90;;;;;;5064514;28;20246;-74
2023/01/14 11:11:57;;;;;;;5.05;4.55;;;12.20;99.90;;;;;;5068163;28;20198;-75
2023/01/14 11:14:31;;;;;;;4.60;4.20;;;12.20;99.90;;;;;;5063645;28;20603;-74
2023/01/14 11:16:58;;;;;;;4.97;4.57;;;12.10;99.90;;;;;;5063872;28;20221;-74
2023/01/14 11:19:27;;;;;;;5.25;4.75;;;11.50;99.90;;;;;;5061075;28;20198;-73
2023/01/14 11:21:57;;;;;;;5.47;4.97;;;10.70;99.90;;;;;;5066490;28;20231;-78
2023/01/14 11:24:29;;;;;;;5.00;4.57;;;10.60;99.90;;;;;;5060821;28;20234;-79
2023/01/14 11:27:04;;;;;;;4.75;4.22;;;10.70;99.90;;;;;;5065625;28;20225;-79
2023/01/14 11:29:36;;;;;;;4.70;4.30;;;10.70;99.90;;;;;;5064541;28;20225;-80
2023/01/14 11:32:08;;;;;;;4.93;4.43;;;10.60;99.90;;;;;;5063171;28;20699;-80
2023/01/14 11:34:39;;;;;;;4.60;4.20;;;10.60;99.90;;;;;;5064435;28;20262;-76
2023/01/14 11:37:15;;;;;;;5.43;4.50;;;10.10;99.90;;;;;;5062723;28;20198;-75
2023/01/14 11:39:48;;;;;;;5.00;4.60;;;9.90;99.90;;;;;;5061549;28;20340;-81
2023/01/14 11:42:31;;;;;;;5.03;4.63;;;9.70;99.90;;;;;;5064301;28;20191;-78
2023/01/14 11:45:01;;;;;;;4.90;4.50;;;10.00;99.90;;;;;;5062493;28;20217;-75
2023/01/14 11:47:30;;;;;;;5.00;4.22;;;10.30;99.90;;;;;;5063041;28;20194;-81
2023/01/14 11:50:21;;;;;;;4.97;4.28;;;10.40;99.90;;;;;;5061531;28;20437;-78
2023/01/14 11:53:01;;;;;;;4.65;4.30;;;10.50;99.90;;;;;;5062457;28;20194;-78
2023/01/14 11:55:32;;;;;;;5.32;4.93;;;10.70;99.90;;;;;;5061900;28;20222;-76
2023/01/14 11:58:04;;;;;;;5.40;4.90;;;11.00;99.90;;;;;;5065550;28;20595;-77
2023/01/14 12:00:35;;;;;;;6.97;4.70;;;11.20;99.90;;;;;;5065252;28;20712;-78
2023/01/14 12:03:07;;;;;;;4.82;4.43;;;11.20;99.90;;;;;;5062419;28;20217;-81
2023/01/14 12:05:36;;;;;;;5.40;4.90;;;11.30;99.90;;;;;;5063995;28;20696;-79
2023/01/14 12:08:12;;;;;;;5.75;4.90;;;11.10;99.90;;;;;;5064659;28;20209;-78
2023/01/14 12:10:45;;;;;;;5.68;5.13;;;11.00;99.90;;;;;;5060819;28;20282;-77
2023/01/14 12:18:55;;;;;;;4.93;4.53;;;11.30;99.90;;;;;;5058404;28;20206;-77
2023/01/14 12:21:28;;;;;;;4.60;4.20;;;11.30;99.90;;;;;;5060961;28;20596;-78
2023/01/14 12:23:59;;;;;;;5.57;4.97;;;11.40;99.90;;;;;;5060341;28;20211;-76
2023/01/14 12:26:35;;;;;;;6.22;5.35;;;11.50;99.90;;;;;;5062931;28;20222;-76
2023/01/14 12:29:07;;;;;;;4.82;4.43;;;11.50;99.90;;;;;;5062841;28;20618;-77
2023/01/14 12:31:42;;;;;;;4.53;4.22;;;11.60;99.90;;;;;;5068023;28;20229;-77
2023/01/14 12:34:18;;;;;;;5.95;4.68;;;11.60;99.90;;;;;;5063324;28;20218;-76
2023/01/14 12:36:51;;;;;;;4.82;4.43;;;11.60;99.90;;;;;;5060024;28;20201;-77
2023/01/14 12:48:07;;;;;;;4.78;4.20;;;11.40;99.90;;;;;;5063914;28;20210;-75
2023/01/14 12:50:37;;;;;;;4.63;4.22;;;11.30;99.90;;;;;;5058520;28;20317;-77
2023/01/14 12:53:04;;;;;;;7.90;4.70;;;11.50;99.90;;;;;;5059292;28;20987;-76
2023/01/14 12:55:35;;;;;;;4.85;4.45;;;11.30;99.90;;;;;;5062089;28;20317;-74
2023/01/14 12:58:06;;;;;;;4.47;4.07;;;11.30;99.90;;;;;;5060365;28;20191;-74
2023/01/14 13:00:35;;;;;;;4.75;4.30;;;11.40;99.90;;;;;;5059623;28;20218;-75
2023/01/14 13:03:07;;;;;;;4.85;4.45;;;11.60;99.90;;;;;;5064088;28;20281;-75
2023/01/14 13:05:37;;;;;;;5.53;4.50;;;11.70;99.90;;;;;;5064167;28;20230;-75
2023/01/14 13:08:07;;;;;;;4.60;4.20;;;11.50;99.90;;;;;;5063549;28;20672;-75
2023/01/14 13:10:37;;;;;;;4.75;4.35;;;11.30;99.90;;;;;;5060794;28;20218;-73
2023/01/14 13:13:18;;;;;;;6.00;4.57;;;11.20;99.90;;;;;;5063544;28;20199;-75
2023/01/14 13:15:45;;;;;;;4.63;4.22;;;11.30;99.90;;;;;;5064628;28;20218;-75
2023/01/14 13:18:45;;;;;;;4.53;4.13;;;11.30;99.90;;;;;;5066309;28;20576;-75
2023/01/14 13:21:12;;;;;;;4.93;4.43;;;11.20;99.90;;;;;;5060578;28;20272;-78
2023/01/14 13:24:27;;;;;;;4.28;3.97;;;11.10;99.90;;;;;;5066757;28;20293;-81
2023/01/14 13:26:57;;;;;;;4.18;3.78;;;10.90;99.90;;;;;;5044827;28;20226;-78
2023/01/14 13:29:27;;;;;;;4.10;3.80;;;10.90;99.90;;;;;;5066271;28;20233;-77
2023/01/14 13:31:55;;;;;;;4.45;3.55;;;10.90;99.90;;;;;;5069317;28;20206;-78
2023/01/14 13:34:37;;;;;;;4.43;4.13;;;10.70;99.90;;;;;;5065956;28;20321;-80
2023/01/14 13:37:19;;;;;;;4.97;3.92;;;10.60;99.90;;;;;;5068285;28;20198;-73
2023/01/14 13:39:53;;;;;;;4.93;4.00;;;10.40;99.90;;;;;;5065043;28;20237;-78
2023/01/14 13:42:26;;;;;;;4.45;4.05;;;10.50;99.90;;;;;;5063210;28;20201;-79
2023/01/14 13:44:56;;;;;;;4.25;3.85;;;10.60;99.90;;;;;;5060840;28;20214;-76
2023/01/14 13:47:29;;;;;;;4.68;4.28;;;10.70;99.90;;;;;;5059662;28;20222;-80
2023/01/14 13:50:02;;;;;;;4.80;4.22;;;10.70;99.90;;;;;;5056691;28;20214;-78